createdAt,value
2022-10-13T00:01:11.649Z,8.50
2022-10-13T00:03:40.707Z,8.58
2022-10-13T00:06:11.747Z,8.37
2022-10-13T00:08:41.940Z,8.38
2022-10-13T00:11:13.136Z,8.39
2022-10-13T00:13:42.210Z,8.43
2022-10-13T00:16:11.546Z,8.41
2022-10-13T00:18:40.080Z,8.50
2022-10-13T00:21:09.983Z,8.55
2022-10-13T00:23:38.508Z,8.53
2022-10-13T00:26:10.514Z,8.51
2022-10-13T00:28:39.367Z,8.60
2022-10-13T00:31:17.065Z,8.62
2022-10-13T00:33:45.505Z,8.59
2022-10-13T00:36:14.449Z,8.32
2022-10-13T00:38:43.806Z,8.32
2022-10-13T00:41:13.636Z,8.40
2022-10-13T00:43:52.978Z,8.35
2022-10-13T00:46:21.615Z,8.45
2022-10-13T00:48:58.187Z,8.33
2022-10-13T00:51:30.716Z,8.34
2022-10-13T00:54:01.053Z,8.32
2022-10-13T00:56:30.941Z,8.28
2022-10-13T00:59:01.408Z,8.32
2022-10-13T01:01:30.180Z,8.45
2022-10-13T01:03:58.590Z,8.53
2022-10-13T01:06:27.274Z,8.40
2022-10-13T01:08:55.859Z,8.32
2022-10-13T01:11:39.030Z,8.16
2022-10-13T01:14:19.289Z,8.31
2022-10-13T01:16:54.939Z,8.29
2022-10-13T01:19:51.794Z,8.49
2022-10-13T01:22:39.454Z,8.42
2022-10-13T01:25:19.087Z,8.63
2022-10-13T01:28:19.390Z,8.63
2022-10-13T01:30:53.721Z,8.60
2022-10-13T01:33:31.236Z,8.58
2022-10-13T01:36:13.396Z,8.57
2022-10-13T01:38:49.118Z,8.55
2022-10-13T01:41:26.818Z,8.42
2022-10-13T01:44:01.882Z,8.50
2022-10-13T01:46:34.519Z,8.51
2022-10-13T01:49:06.086Z,8.52
2022-10-13T01:51:36.269Z,8.52
2022-10-13T01:54:05.215Z,8.66
2022-10-13T01:56:33.731Z,8.75
2022-10-13T01:59:07.004Z,8.65
2022-10-13T02:01:54.280Z,8.69
2022-10-13T02:04:32.363Z,8.61
2022-10-13T02:07:07.308Z,8.26
2022-10-13T02:09:42.828Z,8.41
2022-10-13T02:12:17.698Z,8.49
2022-10-13T02:14:49.368Z,8.60
2022-10-13T02:17:20.678Z,8.87
2022-10-13T02:19:49.178Z,8.78
2022-10-13T02:22:18.979Z,8.72
2022-10-13T02:24:47.521Z,8.72
2022-10-13T02:27:15.969Z,8.56
2022-10-13T02:29:52.314Z,8.67
2022-10-13T02:32:23.038Z,8.77
2022-10-13T02:34:53.628Z,9.06
2022-10-13T02:37:21.878Z,9.26
2022-10-13T02:39:50.217Z,9.43
2022-10-13T02:42:20.835Z,9.45
2022-10-13T02:44:49.323Z,9.24
2022-10-13T02:47:17.989Z,9.27
2022-10-13T02:49:47.522Z,9.51
2022-10-13T02:52:15.713Z,9.60
2022-10-13T02:54:43.929Z,9.50
2022-10-13T02:57:12.096Z,9.56
2022-10-13T02:59:45.039Z,9.65
2022-10-13T03:02:13.104Z,9.70
2022-10-13T03:04:41.359Z,9.69
2022-10-13T03:07:11.280Z,9.68
2022-10-13T03:09:39.551Z,9.67
2022-10-13T03:12:08.169Z,9.58
2022-10-13T03:14:37.024Z,9.56
2022-10-13T03:17:07.019Z,9.49
2022-10-13T03:19:38.230Z,9.26
2022-10-13T03:22:06.417Z,9.16
2022-10-13T03:24:35.938Z,9.30
2022-10-13T03:27:04.128Z,9.17
2022-10-13T03:29:32.385Z,9.17
2022-10-13T03:32:00.612Z,9.04
2022-10-13T03:34:29.430Z,9.05
2022-10-13T03:36:58.221Z,9.06
2022-10-13T03:39:26.846Z,8.99
2022-10-13T03:41:56.769Z,8.91
2022-10-13T03:44:25.031Z,8.89
2022-10-13T03:46:53.511Z,8.83
2022-10-13T03:49:21.997Z,8.56
2022-10-13T03:51:50.213Z,8.67
2022-10-13T03:54:18.862Z,8.66
2022-10-13T03:56:49.684Z,8.62
2022-10-13T03:59:19.505Z,8.58
2022-10-13T04:01:47.698Z,8.49
2022-10-13T04:04:15.989Z,8.49
2022-10-13T04:06:44.618Z,8.52
2022-10-13T04:09:13.242Z,8.51
2022-10-13T04:11:42.248Z,8.56
2022-10-13T04:14:10.448Z,8.56
2022-10-13T04:16:40.781Z,8.58
2022-10-13T04:19:09.158Z,8.67
2022-10-13T04:21:37.293Z,8.58
2022-10-13T04:24:06.847Z,8.56
2022-10-13T04:26:37.026Z,8.45
2022-10-13T04:29:10.378Z,8.45
2022-10-13T04:31:43.028Z,8.19
2022-10-13T04:34:11.688Z,8.37
2022-10-13T04:36:40.004Z,8.36
2022-10-13T04:39:08.257Z,8.40
2022-10-13T04:41:36.674Z,8.36
2022-10-13T04:44:05.147Z,8.26
2022-10-13T04:46:33.353Z,8.15
2022-10-13T04:49:02.899Z,8.24
2022-10-13T04:51:33.766Z,8.27
2022-10-13T04:54:03.266Z,8.28
2022-10-13T04:56:31.608Z,8.21
2022-10-13T04:59:05.919Z,8.09
2022-10-13T05:01:36.121Z,8.20
2022-10-13T05:04:10.544Z,8.23
2022-10-13T05:07:05.323Z,8.37
2022-10-13T05:09:30.286Z,8.35
2022-10-13T05:11:58.873Z,8.47
2022-10-13T05:14:27.561Z,8.51
2022-10-13T05:16:56.081Z,8.36
2022-10-13T05:19:25.849Z,8.29
2022-10-13T05:21:54.592Z,8.22
2022-10-13T05:24:31.209Z,8.21
2022-10-13T05:26:59.919Z,8.14
2022-10-13T05:29:28.553Z,8.35
2022-10-13T05:31:57.689Z,8.50
2022-10-13T05:34:28.409Z,8.56
2022-10-13T05:36:57.162Z,8.66
2022-10-13T05:39:25.984Z,8.86
2022-10-13T05:41:54.681Z,9.02
2022-10-13T05:44:24.509Z,9.16
2022-10-13T05:46:56.981Z,9.30
2022-10-13T05:49:25.129Z,9.52
2022-10-13T05:51:58.368Z,9.55
2022-10-13T05:54:31.148Z,9.48
2022-10-13T05:57:05.619Z,9.59
2022-10-13T05:59:38.942Z,9.79
2022-10-13T06:02:10.611Z,9.93
2022-10-13T06:04:43.210Z,10.02
2022-10-13T06:07:13.412Z,10.10
2022-10-13T06:09:43.288Z,10.14
2022-10-13T06:12:12.010Z,10.21
2022-10-13T06:14:40.272Z,10.31
2022-10-13T06:17:11.242Z,10.45
2022-10-13T06:19:40.001Z,10.48
2022-10-13T06:22:08.813Z,10.63
2022-10-13T06:24:38.367Z,10.97
2022-10-13T06:27:10.815Z,11.56
2022-10-13T06:29:39.336Z,11.73
2022-10-13T06:32:08.222Z,12.41
2022-10-13T06:34:36.479Z,13.03
2022-10-13T06:37:04.805Z,13.63
2022-10-13T06:39:32.875Z,14.38
2022-10-13T06:42:06.445Z,14.70
2022-10-13T06:44:39.212Z,14.93
2022-10-13T06:47:07.479Z,14.77
2022-10-13T06:49:35.630Z,14.64
2022-10-13T06:52:04.303Z,14.68
2022-10-13T06:54:32.639Z,14.55
2022-10-13T06:57:00.726Z,14.40
2022-10-13T06:59:30.111Z,14.63
2022-10-13T07:01:58.389Z,15.36
2022-10-13T07:04:28.057Z,15.53
2022-10-13T07:06:59.179Z,15.77
2022-10-13T07:09:27.475Z,16.87
2022-10-13T07:11:55.818Z,20.22
2022-10-13T07:14:23.931Z,24.00
2022-10-13T07:16:53.686Z,23.56
2022-10-13T07:19:21.979Z,24.26
2022-10-13T07:21:50.167Z,22.73
2022-10-13T07:24:18.881Z,21.78
2022-10-13T07:26:47.130Z,20.70
2022-10-13T07:29:16.294Z,19.65
2022-10-13T07:31:44.676Z,19.93
2022-10-13T07:34:15.357Z,19.65
2022-10-13T07:36:43.912Z,18.65
2022-10-13T07:39:12.172Z,16.82
2022-10-13T07:41:40.388Z,17.09
2022-10-13T07:44:08.834Z,17.24
2022-10-13T07:46:37.070Z,17.45
2022-10-13T07:49:05.390Z,17.26
2022-10-13T07:51:34.910Z,17.22
2022-10-13T07:54:03.157Z,16.24
2022-10-13T07:56:31.281Z,16.79
2022-10-13T07:58:59.539Z,17.26
2022-10-13T08:01:27.650Z,16.62
2022-10-13T08:03:56.752Z,20.66
2022-10-13T08:06:24.892Z,24.13
2022-10-13T08:08:57.806Z,21.21
2022-10-13T08:11:26.051Z,19.40
2022-10-13T08:13:55.959Z,22.60
2022-10-13T08:16:24.385Z,22.91
2022-10-13T08:18:53.096Z,20.01
2022-10-13T08:21:45.838Z,16.36
2022-10-13T08:24:16.296Z,16.77
2022-10-13T08:26:45.513Z,18.00
2022-10-13T08:29:22.027Z,21.01
2022-10-13T08:31:53.745Z,22.31
2022-10-13T08:34:23.455Z,21.60
2022-10-13T08:36:54.395Z,21.86
2022-10-13T08:39:26.238Z,22.86
2022-10-13T08:41:56.558Z,22.18
2022-10-13T08:47:24.210Z,21.65
2022-10-13T08:49:56.468Z,22.33
2022-10-13T08:52:31.698Z,22.30
2022-10-13T08:55:01.193Z,22.84
2022-10-13T08:57:32.079Z,23.37
2022-10-13T09:00:00.768Z,23.98
2022-10-13T09:02:32.602Z,23.43
2022-10-13T09:05:04.794Z,23.19
2022-10-13T09:07:38.393Z,23.31
2022-10-13T09:10:10.763Z,23.61
2022-10-13T09:12:39.200Z,25.08
2022-10-13T09:15:09.865Z,24.14
2022-10-13T09:17:40.027Z,25.87
2022-10-13T09:20:20.080Z,26.89
2022-10-13T09:23:03.984Z,24.65
2022-10-13T09:25:42.104Z,21.44
2022-10-13T09:28:17.167Z,19.35
2022-10-13T09:30:48.508Z,18.91
2022-10-13T09:33:25.881Z,20.15
2022-10-13T09:36:14.897Z,22.76
2022-10-13T09:38:47.524Z,22.52
2022-10-13T09:41:22.102Z,22.43
2022-10-13T09:44:05.874Z,24.31
2022-10-13T09:46:37.570Z,25.69
2022-10-13T09:49:09.193Z,24.65
2022-10-13T09:51:39.936Z,26.90
2022-10-13T09:54:28.930Z,29.00
2022-10-13T09:57:04.928Z,25.76
2022-10-13T09:59:36.617Z,25.41
2022-10-13T10:02:22.403Z,23.23
2022-10-13T10:04:54.843Z,24.32
2022-10-13T10:07:28.524Z,22.67
2022-10-13T10:10:04.919Z,23.96
2022-10-13T10:12:38.426Z,22.13
2022-10-13T10:15:21.440Z,22.40
2022-10-13T10:17:56.509Z,21.54
2022-10-13T10:20:50.922Z,20.80
2022-10-13T10:23:24.043Z,19.78
2022-10-13T10:25:55.003Z,20.30
2022-10-13T10:28:45.673Z,20.06
2022-10-13T10:31:27.831Z,20.40
2022-10-13T10:34:07.749Z,19.38
2022-10-13T10:36:45.893Z,20.75
2022-10-13T10:39:24.093Z,21.03
2022-10-13T10:42:00.833Z,21.72
2022-10-13T10:44:34.315Z,22.17
2022-10-13T10:47:06.264Z,21.78
2022-10-13T10:49:36.486Z,20.27
2022-10-13T10:52:09.714Z,19.80
2022-10-13T10:54:53.105Z,20.02
2022-10-13T10:57:26.740Z,20.20
2022-10-13T11:00:04.920Z,19.23
2022-10-13T11:02:48.772Z,19.68
2022-10-13T11:05:17.804Z,19.41
2022-10-13T11:08:00.344Z,19.54
2022-10-13T11:10:29.845Z,20.63
2022-10-13T11:13:22.365Z,20.87
2022-10-13T11:15:52.224Z,20.40
2022-10-13T11:18:59.295Z,20.77
2022-10-13T11:22:24.818Z,19.34
2022-10-13T11:25:26.588Z,19.93
2022-10-13T11:27:56.202Z,21.29
2022-10-13T11:30:51.162Z,20.33
2022-10-13T11:33:57.575Z,21.04
2022-10-13T11:37:03.103Z,19.66
2022-10-13T11:40:04.755Z,20.49
2022-10-13T11:43:11.770Z,19.06
2022-10-13T11:46:03.189Z,19.17
2022-10-13T11:48:56.091Z,18.39
2022-10-13T11:51:48.361Z,18.88
2022-10-13T11:54:28.279Z,17.41
2022-10-13T11:56:58.379Z,17.56
2022-10-13T11:59:31.155Z,17.73
2022-10-13T12:02:06.837Z,18.93
2022-10-13T12:04:35.000Z,18.84
2022-10-13T12:07:06.211Z,19.45
2022-10-13T12:09:37.944Z,19.31
2022-10-13T12:12:15.909Z,19.29
2022-10-13T12:14:48.465Z,19.51
2022-10-13T12:17:25.093Z,19.93
2022-10-13T12:19:55.453Z,20.67
2022-10-13T12:22:23.939Z,20.13
2022-10-13T12:25:00.720Z,19.37
2022-10-13T12:27:32.570Z,19.26
2022-10-13T12:30:03.655Z,19.19
2022-10-13T12:32:36.016Z,18.37
2022-10-13T12:35:19.976Z,18.23
2022-10-13T12:37:48.580Z,18.13
2022-10-13T12:40:18.709Z,17.15
2022-10-13T12:42:48.650Z,17.77
2022-10-13T12:45:20.207Z,17.60
2022-10-13T12:47:51.483Z,17.94
2022-10-13T12:50:38.277Z,17.86
2022-10-13T12:53:25.310Z,18.18
2022-10-13T12:55:59.102Z,19.05
2022-10-13T12:58:31.175Z,18.09
2022-10-13T13:01:27.151Z,18.29
2022-10-13T13:03:58.193Z,18.08
2022-10-13T13:06:33.791Z,18.40
2022-10-13T13:09:17.939Z,18.30
2022-10-13T13:11:46.412Z,18.15
2022-10-13T13:14:25.524Z,18.10
2022-10-13T13:17:06.171Z,18.59
2022-10-13T13:19:35.166Z,18.33
2022-10-13T13:22:06.997Z,19.29
2022-10-13T13:24:40.218Z,19.27
2022-10-13T13:27:24.616Z,19.72
2022-10-13T13:29:54.028Z,19.55
2022-10-13T13:32:26.078Z,19.24
2022-10-13T13:34:54.539Z,18.02
2022-10-13T13:37:29.953Z,18.74
2022-10-13T13:39:58.144Z,17.81
2022-10-13T13:42:28.392Z,18.20
2022-10-13T13:44:56.993Z,18.11
2022-10-13T13:47:28.603Z,18.25
2022-10-13T13:49:58.351Z,17.78
2022-10-13T13:52:26.688Z,17.77
2022-10-13T13:54:56.192Z,17.80
2022-10-13T13:57:24.340Z,17.61
2022-10-13T13:59:52.483Z,17.81
2022-10-13T14:02:22.654Z,17.79
2022-10-13T14:04:53.370Z,17.34
2022-10-13T14:07:22.405Z,17.17
2022-10-13T14:09:53.802Z,17.53
2022-10-13T14:12:24.151Z,17.36
2022-10-13T14:14:52.374Z,17.17
2022-10-13T14:17:23.471Z,17.54
2022-10-13T14:19:54.234Z,17.51
2022-10-13T14:22:23.044Z,16.77
2022-10-13T14:24:51.626Z,17.26
2022-10-13T14:27:19.766Z,17.13
2022-10-13T14:29:48.066Z,17.22
2022-10-13T14:32:17.220Z,17.55
2022-10-13T14:34:45.644Z,17.45
2022-10-13T14:37:15.264Z,17.39
2022-10-13T14:39:43.840Z,17.27
2022-10-13T14:42:11.848Z,17.35
2022-10-13T14:44:39.963Z,17.56
2022-10-13T14:47:08.495Z,17.15
2022-10-13T14:49:36.823Z,16.73
2022-10-13T14:52:05.075Z,17.09
2022-10-13T14:54:34.814Z,17.38
2022-10-13T14:57:05.633Z,17.06
2022-10-13T14:59:33.941Z,17.03
2022-10-13T15:02:02.315Z,16.90
2022-10-13T15:04:30.288Z,17.10
2022-10-13T15:06:58.357Z,16.86
2022-10-13T15:09:38.652Z,16.88
2022-10-13T15:12:17.164Z,16.80
2022-10-13T15:14:45.844Z,16.84
2022-10-13T15:17:14.264Z,16.79
2022-10-13T15:19:42.571Z,16.84
2022-10-13T15:22:11.688Z,16.88
2022-10-13T15:24:39.968Z,17.00
2022-10-13T15:27:08.242Z,17.15
2022-10-13T15:29:37.912Z,17.02
2022-10-13T15:32:10.361Z,16.90
2022-10-13T15:34:40.855Z,16.81
2022-10-13T15:37:09.048Z,16.57
2022-10-13T15:39:37.354Z,16.39
2022-10-13T15:42:06.341Z,16.45
2022-10-13T15:44:57.432Z,16.13
2022-10-13T15:47:24.065Z,15.84
2022-10-13T15:49:52.269Z,15.91
2022-10-13T15:52:20.546Z,15.98
2022-10-13T15:54:51.599Z,15.92
2022-10-13T15:57:20.202Z,15.62
2022-10-13T15:59:48.629Z,15.49
2022-10-13T16:02:16.790Z,15.28
2022-10-13T16:04:46.424Z,15.20
2022-10-13T16:07:14.465Z,15.27
2022-10-13T16:09:42.484Z,15.25
2022-10-13T16:12:10.488Z,15.15
2022-10-13T16:14:39.091Z,15.45
2022-10-13T16:17:07.327Z,15.45
2022-10-13T16:19:35.420Z,15.14
2022-10-13T16:22:04.982Z,15.18
2022-10-13T16:24:33.960Z,15.44
2022-10-13T16:27:02.170Z,15.39
2022-10-13T16:29:31.332Z,15.64
2022-10-13T16:32:00.451Z,15.56
2022-10-13T16:34:30.371Z,15.49
2022-10-13T16:36:58.517Z,15.43
2022-10-13T16:39:28.570Z,15.38
2022-10-13T16:41:56.765Z,15.10
2022-10-13T16:44:26.096Z,15.31
2022-10-13T16:46:56.639Z,15.35
2022-10-13T16:49:25.152Z,15.37
2022-10-13T16:51:53.392Z,15.38
2022-10-13T16:54:21.617Z,15.36
2022-10-13T16:56:51.472Z,15.29
2022-10-13T16:59:19.509Z,15.34
2022-10-13T17:01:49.070Z,15.20
2022-10-13T17:04:22.018Z,15.08
2022-10-13T17:06:50.658Z,15.02
2022-10-13T17:09:18.661Z,15.14
2022-10-13T17:11:46.981Z,14.99
2022-10-13T17:14:16.543Z,14.93
2022-10-13T17:16:45.211Z,14.97
2022-10-13T17:19:13.497Z,14.99
2022-10-13T17:21:41.949Z,14.90
2022-10-13T17:24:10.919Z,14.77
2022-10-13T17:26:40.035Z,14.64
2022-10-13T17:29:09.468Z,14.90
2022-10-13T17:31:39.204Z,14.78
2022-10-13T17:34:09.237Z,14.60
2022-10-13T17:36:37.759Z,14.81
2022-10-13T17:39:12.620Z,14.97
2022-10-13T17:41:41.349Z,15.00
2022-10-13T17:44:09.607Z,14.78
2022-10-13T17:46:40.128Z,14.83
2022-10-13T17:49:10.253Z,14.74
2022-10-13T17:51:38.646Z,14.74
2022-10-13T17:54:11.430Z,14.72
2022-10-13T17:56:42.961Z,14.80
2022-10-13T17:59:11.308Z,14.74
2022-10-13T18:01:42.284Z,14.57
2022-10-13T18:04:12.890Z,14.64
2022-10-13T18:06:44.403Z,14.46
2022-10-13T18:09:14.298Z,14.60
2022-10-13T18:11:49.489Z,14.61
2022-10-13T18:14:19.152Z,14.54
2022-10-13T18:16:51.421Z,14.46
2022-10-13T18:19:20.711Z,14.41
2022-10-13T18:21:49.518Z,14.20
2022-10-13T18:24:17.825Z,14.48
2022-10-13T18:26:47.083Z,14.47
2022-10-13T18:29:15.225Z,14.56
2022-10-13T18:31:44.019Z,14.49
2022-10-13T18:34:16.931Z,14.53
2022-10-13T18:36:47.268Z,14.32
2022-10-13T18:39:17.096Z,14.59
2022-10-13T18:41:48.593Z,14.52
2022-10-13T18:44:17.607Z,14.54
2022-10-13T18:46:46.236Z,14.44
2022-10-13T18:49:18.261Z,14.40
2022-10-13T18:51:46.873Z,14.28
2022-10-13T18:54:15.188Z,14.34
2022-10-13T18:56:43.327Z,14.21
2022-10-13T18:59:12.541Z,14.18
2022-10-13T19:01:41.706Z,14.11
2022-10-13T19:04:12.700Z,14.31
2022-10-13T19:06:42.540Z,14.33
2022-10-13T19:09:13.630Z,13.77
2022-10-13T19:11:42.202Z,14.13
2022-10-13T19:14:13.038Z,14.36
2022-10-13T19:16:43.633Z,14.39
2022-10-13T19:19:12.239Z,14.39
2022-10-13T19:21:42.495Z,14.02
2022-10-13T19:24:12.148Z,14.14
2022-10-13T19:26:40.536Z,14.37
2022-10-13T19:29:10.793Z,14.42
2022-10-13T19:31:41.863Z,14.21
2022-10-13T19:34:10.654Z,14.06
2022-10-13T19:36:41.439Z,14.30
2022-10-13T19:39:15.923Z,14.53
2022-10-13T19:41:45.094Z,14.65
2022-10-13T19:44:15.530Z,14.52
2022-10-13T19:46:45.835Z,14.52
2022-10-13T19:49:17.508Z,14.40
2022-10-13T19:51:46.724Z,14.43
2022-10-13T19:54:20.852Z,14.49
2022-10-13T19:56:50.428Z,14.35
2022-10-13T19:59:19.591Z,14.47
2022-10-13T20:01:48.618Z,14.38
2022-10-13T20:04:20.712Z,14.15
2022-10-13T20:06:49.143Z,14.24
2022-10-13T20:09:20.790Z,14.01
2022-10-13T20:11:51.060Z,14.23
2022-10-13T20:14:21.258Z,14.32
2022-10-13T20:16:49.932Z,14.10
2022-10-13T20:19:19.556Z,14.21
2022-10-13T20:21:51.700Z,14.33
2022-10-13T20:24:23.199Z,14.33
2022-10-13T20:26:51.462Z,14.18
2022-10-13T20:29:23.595Z,14.01
2022-10-13T20:31:52.212Z,13.97
2022-10-13T20:34:20.802Z,13.84
2022-10-13T20:36:51.182Z,13.75
2022-10-13T20:39:21.674Z,13.64
2022-10-13T20:41:49.748Z,13.66
2022-10-13T20:44:18.475Z,13.73
2022-10-13T20:46:46.739Z,13.65
2022-10-13T20:49:40.534Z,13.41
2022-10-13T20:52:08.861Z,13.25
2022-10-13T20:54:38.280Z,13.16
2022-10-13T20:57:06.500Z,13.13
2022-10-13T20:59:34.555Z,13.08
2022-10-13T21:02:02.708Z,12.97
2022-10-13T21:04:30.988Z,12.54
2022-10-13T21:06:59.036Z,12.66
2022-10-13T21:09:27.031Z,12.68
2022-10-13T21:11:56.407Z,12.75
2022-10-13T21:14:51.547Z,12.70
2022-10-13T21:17:19.965Z,12.86
2022-10-13T21:19:48.239Z,12.78
2022-10-13T21:22:16.435Z,12.85
2022-10-13T21:24:44.777Z,13.05
2022-10-13T21:27:14.248Z,12.93
2022-10-13T21:29:42.651Z,12.95
2022-10-13T21:32:11.495Z,12.94
2022-10-13T21:35:54.996Z,13.22
2022-10-13T21:38:23.534Z,13.02
2022-10-13T21:40:54.003Z,12.81
2022-10-13T21:43:23.749Z,12.80
2022-10-13T21:48:49.267Z,12.41
2022-10-13T21:51:19.540Z,12.29
2022-10-13T21:53:51.099Z,12.27
2022-10-13T21:56:20.250Z,12.04
2022-10-13T21:58:50.284Z,11.83
2022-10-13T22:01:19.816Z,11.87
2022-10-13T22:03:49.013Z,11.77
2022-10-13T22:06:21.328Z,11.58
2022-10-13T22:08:51.656Z,11.54
2022-10-13T22:11:24.411Z,11.53
2022-10-13T22:13:54.166Z,11.63
2022-10-13T22:16:24.408Z,11.70
2022-10-13T22:18:54.783Z,11.52
2022-10-13T22:21:28.584Z,11.65
2022-10-13T22:23:59.206Z,11.86
2022-10-13T22:26:28.940Z,12.01
2022-10-13T22:28:59.332Z,12.19
2022-10-13T22:31:28.263Z,12.29
2022-10-13T22:33:56.690Z,12.33
2022-10-13T22:36:27.089Z,12.25
2022-10-13T22:38:57.416Z,12.34
2022-10-13T22:41:25.817Z,12.11
2022-10-13T22:43:56.206Z,12.16
2022-10-13T22:46:28.723Z,12.27
2022-10-13T22:48:58.053Z,12.29
2022-10-13T22:51:28.273Z,12.37
2022-10-13T22:53:57.441Z,12.36
2022-10-13T22:56:27.656Z,12.30
2022-10-13T22:58:57.965Z,12.26
2022-10-13T23:01:28.442Z,12.33
2022-10-13T23:03:58.430Z,12.28
2022-10-13T23:06:28.810Z,12.39
2022-10-13T23:08:57.798Z,12.43
2022-10-13T23:11:26.049Z,12.37
2022-10-13T23:13:54.802Z,12.39
2022-10-13T23:16:24.853Z,12.38
2022-10-13T23:18:55.531Z,12.42
2022-10-13T23:21:26.747Z,12.37
2022-10-13T23:23:56.269Z,12.31
2022-10-13T23:26:25.096Z,12.20
2022-10-13T23:28:55.870Z,12.22
2022-10-13T23:31:25.343Z,12.18
2022-10-13T23:33:56.764Z,12.07
2022-10-13T23:36:26.828Z,12.12
2022-10-13T23:38:57.147Z,12.21
2022-10-13T23:41:25.630Z,12.30
2022-10-13T23:43:53.972Z,12.34
2022-10-13T23:46:22.854Z,12.32
2022-10-13T23:48:51.080Z,12.40
2022-10-13T23:51:23.294Z,12.37
2022-10-13T23:53:52.530Z,12.39
2022-10-13T23:56:21.119Z,12.45
2022-10-13T23:58:49.649Z,12.45
